Time;durP1;ratioP1;P1;durP2;ratioP2;P2;SDS_P1;SDS_P2;PMS_P1;PMS_P2;Temp;Humidity;BMP_temperature;BMP_pressure;BME280_temperature;BME280_humidity;BME280_pressure;Samples;Min_cycle;Max_cycle;Signal;HPM_P1;HPM_P2
2023/12/29 00:02:10;;;;;;;8.93;2.07;;;9.30;99.90;;;;;;5016378;28;20445;-67
2023/12/29 00:04:39;;;;;;;7.83;2.30;;;9.40;99.90;;;;;;5014343;28;20452;-67
2023/12/29 00:07:07;;;;;;;9.40;2.40;;;9.50;99.90;;;;;;5015808;28;20448;-67
2023/12/29 00:09:40;;;;;;;6.80;1.70;;;9.50;99.90;;;;;;5015411;28;20972;-67
2023/12/29 00:12:09;;;;;;;7.07;1.80;;;9.50;99.90;;;;;;5016529;28;20597;-67
2023/12/29 00:14:38;;;;;;;7.60;2.13;;;9.50;99.90;;;;;;5017363;28;20456;-68
2023/12/29 00:17:06;;;;;;;8.00;2.40;;;9.60;99.90;;;;;;5008653;28;20511;-67
2023/12/29 00:19:35;;;;;;;7.23;2.13;;;9.60;99.90;;;;;;5005432;28;20496;-67
2023/12/29 00:22:04;;;;;;;7.80;2.50;;;9.70;99.90;;;;;;5009768;28;20534;-67
2023/12/29 00:24:32;;;;;;;9.57;2.40;;;9.80;99.90;;;;;;5010634;28;20520;-66
2023/12/29 00:27:00;;;;;;;9.23;3.17;;;9.90;99.90;;;;;;5011307;28;20461;-66
2023/12/29 00:29:32;;;;;;;8.10;2.30;;;9.90;99.90;;;;;;5014953;28;20542;-67
2023/12/29 00:32:02;;;;;;;8.40;2.73;;;10.00;99.90;;;;;;5014134;28;20487;-66
2023/12/29 00:34:31;;;;;;;8.07;2.43;;;10.10;99.90;;;;;;5005269;28;20464;-66
2023/12/29 00:37:01;;;;;;;7.77;2.13;;;10.00;99.90;;;;;;5004868;28;20468;-67
2023/12/29 00:39:30;;;;;;;7.23;2.03;;;10.10;99.90;;;;;;5003618;28;20450;-67
2023/12/29 00:41:59;;;;;;;8.70;2.60;;;10.10;99.90;;;;;;5004721;28;20560;-67
2023/12/29 00:44:27;;;;;;;7.43;1.83;;;10.20;99.90;;;;;;5002578;28;21128;-67
2023/12/29 00:46:55;;;;;;;8.00;2.00;;;10.30;99.90;;;;;;5007787;28;20948;-67
2023/12/29 00:49:23;;;;;;;7.67;2.00;;;10.30;99.90;;;;;;5009322;28;20687;-66
2023/12/29 00:51:51;;;;;;;7.43;2.10;;;10.30;99.90;;;;;;5004763;28;20508;-68
2023/12/29 00:54:21;;;;;;;7.80;2.47;;;10.20;99.90;;;;;;5005052;28;20453;-67
2023/12/29 00:56:52;;;;;;;8.13;1.90;;;10.20;99.90;;;;;;5006034;28;20460;-67
2023/12/29 00:59:20;;;;;;;8.60;2.47;;;10.30;99.90;;;;;;5009519;28;20456;-67
2023/12/29 01:01:49;;;;;;;8.33;2.07;;;10.30;99.90;;;;;;5008395;28;20472;-68
2023/12/29 01:04:17;;;;;;;8.93;2.13;;;10.30;99.90;;;;;;5008344;28;20504;-67
2023/12/29 01:06:45;;;;;;;11.40;2.60;;;10.40;99.90;;;;;;5007518;28;21037;-66
2023/12/29 01:09:13;;;;;;;7.93;2.00;;;10.30;99.90;;;;;;5003098;28;20501;-67
2023/12/29 01:11:42;;;;;;;6.97;1.77;;;10.30;99.90;;;;;;5005327;28;20488;-68
2023/12/29 01:14:10;;;;;;;7.47;2.33;;;10.30;99.90;;;;;;5001569;28;20448;-67
2023/12/29 01:16:38;;;;;;;8.13;2.00;;;10.40;99.90;;;;;;5007634;28;20487;-67
2023/12/29 01:19:06;;;;;;;8.10;2.37;;;10.40;99.90;;;;;;5008441;28;20502;-65
2023/12/29 01:21:34;;;;;;;7.40;2.10;;;10.30;99.90;;;;;;5008460;28;20469;-65
2023/12/29 01:24:04;;;;;;;8.17;2.57;;;10.30;99.90;;;;;;5008581;28;20460;-66
2023/12/29 01:26:38;;;;;;;8.90;2.50;;;10.30;99.90;;;;;;5007958;28;20564;-67
2023/12/29 01:29:07;;;;;;;6.50;1.73;;;10.40;99.90;;;;;;5008371;28;20453;-66
2023/12/29 01:31:38;;;;;;;7.10;2.13;;;10.50;99.90;;;;;;5008042;28;20489;-65
2023/12/29 01:34:06;;;;;;;9.07;2.53;;;10.50;99.90;;;;;;5064501;23;20545;-66
2023/12/29 01:36:37;;;;;;;10.13;2.27;;;10.50;99.90;;;;;;5026572;28;20535;-66
2023/12/29 01:39:04;;;;;;;7.80;2.43;;;10.50;99.90;;;;;;5018911;28;20452;-65
2023/12/29 01:41:32;;;;;;;7.97;2.23;;;10.50;99.90;;;;;;5026796;28;20505;-66
2023/12/29 01:44:21;;;;;;;7.10;1.60;;;10.50;99.90;;;;;;5026815;28;20977;-65
2023/12/29 01:46:52;;;;;;;7.20;2.10;;;10.60;99.90;;;;;;5026441;28;20513;-66
2023/12/29 01:49:21;;;;;;;8.30;2.20;;;10.50;99.90;;;;;;5026952;28;20445;-66
2023/12/29 01:51:51;;;;;;;8.37;2.60;;;10.50;99.90;;;;;;5026276;28;20519;-66
2023/12/29 01:54:21;;;;;;;7.93;2.40;;;10.50;99.90;;;;;;5026852;28;20558;-66
2023/12/29 01:56:57;;;;;;;8.23;2.67;;;10.40;99.90;;;;;;5026351;28;20453;-66
2023/12/29 01:59:27;;;;;;;7.77;2.37;;;10.50;99.90;;;;;;5028036;28;20495;-66
2023/12/29 02:01:59;;;;;;;7.70;2.40;;;10.50;99.90;;;;;;5028110;28;20452;-65
2023/12/29 02:04:28;;;;;;;7.80;2.60;;;10.50;99.90;;;;;;5026790;28;20474;-66
2023/12/29 02:06:58;;;;;;;7.77;2.50;;;10.50;99.90;;;;;;5025716;28;20918;-66
2023/12/29 02:09:27;;;;;;;7.60;3.00;;;10.50;99.90;;;;;;5027818;28;20456;-67
2023/12/29 02:11:55;;;;;;;8.07;2.57;;;10.50;99.90;;;;;;5026845;28;20615;-66
2023/12/29 02:14:23;;;;;;;7.97;2.43;;;10.50;99.90;;;;;;5027689;28;20499;-66
2023/12/29 02:16:59;;;;;;;7.23;2.30;;;10.50;99.90;;;;;;5026856;28;20456;-66
2023/12/29 02:19:38;;;;;;;8.20;2.97;;;10.50;99.90;;;;;;5027484;28;20549;-66
2023/12/29 02:22:08;;;;;;;8.53;2.90;;;10.50;99.90;;;;;;5027314;28;20437;-66
2023/12/29 02:24:36;;;;;;;7.53;2.37;;;10.50;99.90;;;;;;5027259;28;20468;-65
2023/12/29 02:27:15;;;;;;;6.93;1.80;;;10.50;99.90;;;;;;5019093;28;20492;-66
2023/12/29 02:29:49;;;;;;;7.30;2.20;;;10.50;99.90;;;;;;5026830;28;21040;-66
2023/12/29 02:32:19;;;;;;;7.50;2.20;;;10.50;99.90;;;;;;5027094;28;20526;-66
2023/12/29 02:34:50;;;;;;;7.70;2.53;;;10.60;99.90;;;;;;5026498;28;20990;-66
2023/12/29 02:37:20;;;;;;;8.13;2.40;;;10.50;99.90;;;;;;5027161;28;20465;-66
2023/12/29 02:39:48;;;;;;;6.80;2.00;;;10.50;99.90;;;;;;5024769;28;20452;-67
2023/12/29 02:42:17;;;;;;;7.30;2.70;;;10.60;99.90;;;;;;5026570;28;20504;-66
2023/12/29 02:44:45;;;;;;;7.70;2.50;;;10.60;99.90;;;;;;5026370;28;20480;-66
2023/12/29 02:47:13;;;;;;;9.00;2.50;;;10.70;99.90;;;;;;5026691;28;20452;-66
2023/12/29 02:49:41;;;;;;;7.63;2.00;;;10.60;99.90;;;;;;5026395;28;20637;-66
2023/12/29 02:52:09;;;;;;;9.33;2.80;;;10.60;99.90;;;;;;5026744;28;20663;-66
2023/12/29 02:54:37;;;;;;;8.53;2.70;;;10.60;99.90;;;;;;5026200;28;20472;-66
2023/12/29 02:57:05;;;;;;;8.10;2.60;;;10.60;99.90;;;;;;5018467;28;20458;-67
2023/12/29 02:59:35;;;;;;;7.50;2.67;;;10.60;99.90;;;;;;5026687;28;20534;-66
2023/12/29 03:02:03;;;;;;;7.70;2.10;;;10.60;99.90;;;;;;5018024;28;20485;-66
2023/12/29 03:04:32;;;;;;;8.50;2.53;;;10.60;99.90;;;;;;5026206;28;20499;-66
2023/12/29 03:06:59;;;;;;;7.30;2.27;;;10.50;99.90;;;;;;5025781;28;20452;-67
2023/12/29 03:09:28;;;;;;;10.07;2.70;;;10.50;99.90;;;;;;5026389;28;20478;-66
2023/12/29 03:11:56;;;;;;;9.27;2.43;;;10.50;99.90;;;;;;5026210;28;20536;-66
2023/12/29 03:14:24;;;;;;;7.90;2.63;;;10.50;99.90;;;;;;5026184;28;20482;-67
2023/12/29 03:16:53;;;;;;;7.63;2.73;;;10.50;99.90;;;;;;5025848;28;20519;-67
2023/12/29 03:19:21;;;;;;;7.73;2.13;;;10.50;99.90;;;;;;5026385;28;20880;-66
2023/12/29 03:21:49;;;;;;;7.77;2.57;;;10.50;99.90;;;;;;5025722;28;20452;-66
2023/12/29 03:24:17;;;;;;;8.30;2.40;;;10.40;99.90;;;;;;5025912;28;20467;-66
2023/12/29 03:26:45;;;;;;;8.47;2.40;;;10.40;99.90;;;;;;5025962;28;20978;-66
2023/12/29 03:29:13;;;;;;;7.37;2.20;;;10.40;99.90;;;;;;5026479;28;20466;-66
2023/12/29 03:31:41;;;;;;;8.03;2.77;;;10.20;99.90;;;;;;5026057;28;20869;-66
2023/12/29 03:34:10;;;;;;;7.90;2.50;;;10.20;99.90;;;;;;5025393;28;20492;-68
2023/12/29 03:36:38;;;;;;;9.10;2.73;;;10.20;99.90;;;;;;5025489;28;20894;-66
2023/12/29 03:39:06;;;;;;;8.27;2.63;;;10.20;99.90;;;;;;5025983;28;20635;-65
2023/12/29 03:41:34;;;;;;;8.00;2.63;;;10.10;99.90;;;;;;5025963;28;20460;-66
2023/12/29 03:44:03;;;;;;;8.87;2.80;;;10.20;99.90;;;;;;5025459;28;20436;-66
2023/12/29 03:46:31;;;;;;;8.40;2.50;;;10.00;99.90;;;;;;5025242;28;20731;-66
2023/12/29 03:49:02;;;;;;;8.63;2.43;;;10.00;99.90;;;;;;5025816;28;20449;-66
2023/12/29 03:51:32;;;;;;;8.00;3.03;;;10.00;99.90;;;;;;5025848;28;20996;-66
2023/12/29 03:54:03;;;;;;;8.23;2.20;;;10.00;99.90;;;;;;5024881;28;20491;-66
2023/12/29 03:56:31;;;;;;;8.57;2.93;;;10.00;99.90;;;;;;5025497;28;20578;-66
2023/12/29 03:59:02;;;;;;;9.87;2.90;;;9.90;99.90;;;;;;5025305;28;20541;-66
2023/12/29 04:01:34;;;;;;;8.30;2.83;;;10.00;99.90;;;;;;5025703;28;20480;-66
2023/12/29 04:04:02;;;;;;;7.20;2.10;;;10.00;99.90;;;;;;5025357;28;20447;-66
2023/12/29 04:06:33;;;;;;;9.00;2.77;;;10.00;99.90;;;;;;5025507;28;20452;-66
2023/12/29 04:09:01;;;;;;;7.00;2.00;;;10.10;99.90;;;;;;5025488;28;20479;-66
2023/12/29 04:11:29;;;;;;;9.20;2.47;;;10.10;99.90;;;;;;5025489;28;21020;-66
2023/12/29 04:13:57;;;;;;;7.40;2.37;;;10.10;99.90;;;;;;5025055;28;20490;-66
2023/12/29 04:16:25;;;;;;;8.20;2.53;;;10.10;99.90;;;;;;5025073;28;20463;-66
2023/12/29 04:18:53;;;;;;;8.17;2.73;;;10.10;99.90;;;;;;5025246;28;20453;-66
2023/12/29 04:21:21;;;;;;;7.03;2.07;;;10.00;99.90;;;;;;5025371;28;20961;-66
2023/12/29 04:23:50;;;;;;;6.93;2.00;;;9.90;99.90;;;;;;5024904;28;20509;-66
2023/12/29 04:26:18;;;;;;;7.87;2.30;;;9.80;99.90;;;;;;5024724;28;20448;-66
2023/12/29 04:28:46;;;;;;;7.77;2.57;;;9.60;99.90;;;;;;5025220;28;20537;-66
2023/12/29 04:31:14;;;;;;;7.73;2.40;;;9.60;99.90;;;;;;5025352;28;20517;-66
2023/12/29 04:33:42;;;;;;;8.90;2.50;;;9.60;99.90;;;;;;5025753;28;20561;-66
2023/12/29 04:36:10;;;;;;;7.53;2.30;;;9.60;99.90;;;;;;5028885;28;20839;-66
2023/12/29 04:38:39;;;;;;;8.07;2.30;;;9.60;99.90;;;;;;5028997;28;20513;-66
2023/12/29 04:41:09;;;;;;;7.07;1.80;;;9.60;99.90;;;;;;5029377;28;20490;-66
2023/12/29 04:43:37;;;;;;;7.77;2.13;;;9.60;99.90;;;;;;5029654;28;20447;-66
2023/12/29 04:46:04;;;;;;;7.30;2.23;;;9.60;99.90;;;;;;5029004;28;20501;-65
2023/12/29 04:48:32;;;;;;;7.40;2.10;;;9.60;99.90;;;;;;5029480;28;20453;-66
2023/12/29 04:51:01;;;;;;;7.20;1.80;;;9.60;99.90;;;;;;5028964;28;20948;-66
2023/12/29 04:53:29;;;;;;;7.90;2.20;;;9.70;99.90;;;;;;5029230;28;20504;-65
2023/12/29 04:55:56;;;;;;;8.17;2.23;;;9.70;99.90;;;;;;5029038;28;20502;-66
2023/12/29 04:58:26;;;;;;;7.87;2.33;;;9.70;99.90;;;;;;5029536;28;20460;-65
2023/12/29 05:00:54;;;;;;;7.40;2.30;;;9.70;99.90;;;;;;5029529;28;20451;-66
2023/12/29 05:03:22;;;;;;;7.37;2.10;;;9.60;99.90;;;;;;5029561;28;20454;-66
2023/12/29 05:05:50;;;;;;;8.83;2.40;;;9.50;99.90;;;;;;5028567;28;21313;-66
2023/12/29 05:08:18;;;;;;;7.53;2.50;;;9.50;99.90;;;;;;5029481;28;20457;-67
2023/12/29 05:10:46;;;;;;;7.67;2.43;;;9.40;99.90;;;;;;5029167;28;20448;-65
2023/12/29 05:13:17;;;;;;;7.40;2.10;;;9.40;99.90;;;;;;5029715;28;20486;-67
2023/12/29 05:15:46;;;;;;;9.43;2.63;;;9.40;99.90;;;;;;5029336;28;20470;-67
2023/12/29 05:18:13;;;;;;;7.80;2.23;;;9.40;99.90;;;;;;5029028;28;20458;-67
2023/12/29 05:20:43;;;;;;;8.00;2.50;;;9.40;99.90;;;;;;5029259;28;20832;-67
2023/12/29 05:23:11;;;;;;;8.00;2.37;;;9.50;99.90;;;;;;5021321;28;20514;-67
2023/12/29 05:25:39;;;;;;;8.90;2.67;;;9.50;99.90;;;;;;5028441;28;20989;-67
2023/12/29 05:28:07;;;;;;;8.10;2.60;;;9.50;99.90;;;;;;5028970;28;20462;-67
2023/12/29 05:30:35;;;;;;;8.10;2.40;;;9.50;99.90;;;;;;5028944;28;20531;-67
2023/12/29 05:33:04;;;;;;;8.03;2.57;;;9.40;99.90;;;;;;5028571;28;20466;-67
2023/12/29 05:35:32;;;;;;;7.53;2.50;;;9.30;99.90;;;;;;5028060;28;20474;-67
2023/12/29 05:38:00;;;;;;;8.20;2.53;;;9.30;99.90;;;;;;5028660;28;20472;-67
2023/12/29 05:40:29;;;;;;;9.77;2.47;;;9.20;99.90;;;;;;5028319;28;20489;-67
2023/12/29 05:42:57;;;;;;;8.97;2.33;;;9.30;99.90;;;;;;5027698;28;20490;-67
2023/12/29 05:45:25;;;;;;;8.30;2.40;;;9.20;99.90;;;;;;5027918;28;21316;-67
2023/12/29 05:47:53;;;;;;;8.70;2.60;;;9.20;99.90;;;;;;5028253;28;20970;-68
2023/12/29 05:50:22;;;;;;;8.17;2.30;;;9.20;99.90;;;;;;5028390;28;21070;-67
2023/12/29 05:52:51;;;;;;;8.57;2.53;;;9.20;99.90;;;;;;5028351;28;20451;-67
2023/12/29 05:55:19;;;;;;;9.37;2.87;;;9.20;99.90;;;;;;5027798;28;20865;-67
2023/12/29 05:57:48;;;;;;;8.80;3.20;;;9.20;99.90;;;;;;5028148;28;20803;-68
2023/12/29 06:00:17;;;;;;;7.87;2.70;;;9.20;99.90;;;;;;5027895;28;20451;-67
2023/12/29 06:02:45;;;;;;;7.80;2.43;;;9.20;99.90;;;;;;5028424;28;21082;-67
2023/12/29 06:05:13;;;;;;;7.90;2.63;;;9.10;99.90;;;;;;5027813;28;20471;-67
2023/12/29 06:07:42;;;;;;;8.87;2.93;;;9.20;99.90;;;;;;5028476;28;20818;-67
2023/12/29 06:10:11;;;;;;;8.87;3.63;;;9.10;99.90;;;;;;5028262;28;20450;-67
2023/12/29 06:12:39;;;;;;;8.30;2.90;;;9.10;99.90;;;;;;5028131;28;20454;-67
2023/12/29 06:15:08;;;;;;;8.37;2.83;;;9.10;99.90;;;;;;5027489;28;20489;-67
2023/12/29 06:17:36;;;;;;;8.53;2.60;;;9.10;99.90;;;;;;5028340;28;20528;-67
2023/12/29 06:20:06;;;;;;;8.73;3.07;;;9.00;99.90;;;;;;5027804;28;20455;-67
2023/12/29 06:22:34;;;;;;;7.70;2.40;;;9.00;99.90;;;;;;5027933;28;20453;-67
2023/12/29 06:25:03;;;;;;;8.67;2.83;;;8.90;99.90;;;;;;5027129;28;20549;-67
2023/12/29 06:27:34;;;;;;;8.50;3.20;;;8.80;99.90;;;;;;5027888;28;20485;-67
2023/12/29 06:30:03;;;;;;;9.40;3.07;;;8.80;99.90;;;;;;5028209;28;20495;-67
2023/12/29 06:32:31;;;;;;;9.33;3.00;;;8.70;99.90;;;;;;5028495;28;20936;-67
2023/12/29 06:34:59;;;;;;;8.17;3.27;;;8.50;99.90;;;;;;5027199;28;20489;-68
2023/12/29 06:37:27;;;;;;;8.57;2.73;;;8.40;99.90;;;;;;5027781;28;20470;-67
2023/12/29 06:39:55;;;;;;;8.37;3.20;;;8.40;99.90;;;;;;5027541;28;20454;-67
2023/12/29 06:42:25;;;;;;;9.50;3.37;;;8.30;99.90;;;;;;5027883;28;20448;-67
2023/12/29 06:44:53;;;;;;;8.83;2.93;;;8.20;99.90;;;;;;5027091;28;20988;-68
2023/12/29 06:47:21;;;;;;;10.40;3.17;;;8.20;99.90;;;;;;5027365;28;20447;-65
2023/12/29 06:49:49;;;;;;;8.30;2.80;;;8.00;99.90;;;;;;5027149;28;20463;-65
2023/12/29 06:52:17;;;;;;;7.97;3.23;;;8.00;99.90;;;;;;5027659;28;20676;-65
2023/12/29 06:54:45;;;;;;;8.20;3.07;;;8.00;99.90;;;;;;5026857;28;20485;-65
2023/12/29 06:57:16;;;;;;;9.03;3.07;;;8.00;99.90;;;;;;5026728;28;20920;-65
2023/12/29 06:59:45;;;;;;;9.30;3.50;;;8.00;99.90;;;;;;5027326;28;20456;-66
2023/12/29 07:02:13;;;;;;;8.30;2.80;;;8.10;99.90;;;;;;5019570;28;20854;-65
2023/12/29 07:04:43;;;;;;;8.53;3.00;;;8.20;99.90;;;;;;5026504;28;20470;-66
2023/12/29 07:07:11;;;;;;;8.60;2.70;;;8.40;99.90;;;;;;5019196;28;20457;-66
2023/12/29 07:09:40;;;;;;;7.70;2.87;;;8.50;99.90;;;;;;5027233;28;20504;-65
2023/12/29 07:12:09;;;;;;;8.07;2.30;;;8.50;99.90;;;;;;5027064;28;20928;-66
2023/12/29 07:14:38;;;;;;;8.47;2.63;;;8.60;99.90;;;;;;5026839;28;20576;-66
2023/12/29 07:17:07;;;;;;;7.87;2.57;;;8.70;99.90;;;;;;5026966;28;20922;-66
2023/12/29 07:19:36;;;;;;;9.40;2.47;;;8.70;99.90;;;;;;5027112;28;20537;-65
2023/12/29 07:22:06;;;;;;;8.30;2.77;;;8.70;99.90;;;;;;5027006;28;20618;-66
2023/12/29 07:24:35;;;;;;;8.27;2.40;;;8.70;99.90;;;;;;5027181;28;20476;-66
2023/12/29 07:27:03;;;;;;;8.80;2.70;;;8.80;99.90;;;;;;5026765;28;20459;-66
2023/12/29 07:29:32;;;;;;;8.57;2.73;;;9.00;99.90;;;;;;5026875;28;20478;-66
2023/12/29 07:32:00;;;;;;;8.13;2.60;;;9.00;99.90;;;;;;5026864;28;20448;-66
2023/12/29 07:34:31;;;;;;;9.20;2.70;;;9.00;99.90;;;;;;5026408;28;20482;-66
2023/12/29 07:36:59;;;;;;;7.90;2.60;;;9.00;99.90;;;;;;5026524;28;20446;-66
2023/12/29 07:39:27;;;;;;;7.93;2.37;;;9.10;99.90;;;;;;5026984;28;20456;-66
2023/12/29 07:41:55;;;;;;;9.83;2.50;;;9.10;99.90;;;;;;5026585;28;20495;-66
2023/12/29 07:44:23;;;;;;;9.37;2.63;;;9.20;99.90;;;;;;5026519;28;20490;-66
2023/12/29 07:46:54;;;;;;;8.00;2.77;;;9.20;99.90;;;;;;5026175;28;20455;-66
2023/12/29 07:49:22;;;;;;;7.77;2.33;;;9.20;99.90;;;;;;5026540;28;20448;-66
2023/12/29 07:51:53;;;;;;;7.80;2.70;;;9.30;99.90;;;;;;5026600;28;20554;-67
2023/12/29 07:54:21;;;;;;;6.73;1.80;;;9.30;99.90;;;;;;5026305;28;20530;-66
2023/12/29 07:56:50;;;;;;;7.53;2.50;;;9.40;99.90;;;;;;5026195;28;21185;-66
2023/12/29 07:59:18;;;;;;;8.07;2.40;;;9.50;99.90;;;;;;5027399;28;20512;-66
2023/12/29 08:01:46;;;;;;;8.93;2.53;;;9.60;99.90;;;;;;5026802;28;20844;-66
2023/12/29 08:04:14;;;;;;;8.17;2.50;;;9.60;99.90;;;;;;5018623;28;20472;-66
2023/12/29 08:06:42;;;;;;;7.47;2.53;;;9.70;99.90;;;;;;5027192;28;20551;-66
2023/12/29 08:09:12;;;;;;;9.00;2.03;;;9.70;99.90;;;;;;5027872;28;20870;-67
2023/12/29 08:11:42;;;;;;;7.43;1.93;;;9.70;99.90;;;;;;5030529;28;20826;-66
2023/12/29 08:14:11;;;;;;;7.83;2.40;;;9.70;99.90;;;;;;5029823;28;20941;-67
2023/12/29 08:16:40;;;;;;;7.57;2.10;;;9.70;99.90;;;;;;5029646;28;20483;-67
2023/12/29 08:19:09;;;;;;;7.80;2.20;;;9.80;99.90;;;;;;5030451;28;20449;-67
2023/12/29 08:21:37;;;;;;;7.30;2.33;;;9.80;99.90;;;;;;5029447;28;20451;-67
2023/12/29 08:24:06;;;;;;;8.60;2.40;;;9.80;99.90;;;;;;5029404;28;20467;-67
2023/12/29 08:26:43;;;;;;;7.67;2.30;;;9.90;99.90;;;;;;5030476;28;20485;-65
2023/12/29 08:29:11;;;;;;;8.60;2.60;;;9.90;99.90;;;;;;5029971;28;20450;-66
2023/12/29 08:31:39;;;;;;;8.10;2.40;;;9.90;99.90;;;;;;5029395;28;21816;-66
2023/12/29 08:34:07;;;;;;;7.60;2.03;;;10.00;99.90;;;;;;5029551;28;20508;-67
2023/12/29 08:36:36;;;;;;;8.00;2.23;;;10.00;99.90;;;;;;5029343;28;20490;-67
2023/12/29 08:39:04;;;;;;;8.37;2.13;;;10.00;99.90;;;;;;5029355;28;20476;-67
2023/12/29 08:41:32;;;;;;;7.90;2.37;;;10.10;99.90;;;;;;5029963;28;20449;-67
2023/12/29 08:44:01;;;;;;;9.33;2.50;;;10.10;99.90;;;;;;5030698;28;20458;-67
2023/12/29 08:46:29;;;;;;;7.47;1.90;;;10.20;99.90;;;;;;5029622;28;20982;-67
2023/12/29 08:48:57;;;;;;;7.93;2.20;;;10.20;99.90;;;;;;5030028;28;20450;-66
2023/12/29 08:51:25;;;;;;;8.03;1.97;;;10.30;99.90;;;;;;5030649;28;20543;-66
2023/12/29 08:53:53;;;;;;;8.40;2.10;;;10.30;99.90;;;;;;5029523;28;20453;-67
2023/12/29 08:56:21;;;;;;;8.03;2.00;;;10.40;99.90;;;;;;5029140;28;20473;-67
2023/12/29 08:58:52;;;;;;;7.90;2.30;;;10.30;99.90;;;;;;5028987;28;20444;-67
2023/12/29 09:01:22;;;;;;;10.43;2.60;;;10.30;99.90;;;;;;5029163;28;20462;-67
2023/12/29 09:03:50;;;;;;;8.30;2.10;;;10.30;99.90;;;;;;5029718;28;20791;-67
2023/12/29 09:06:18;;;;;;;7.23;1.83;;;10.30;99.90;;;;;;5030657;28;20527;-66
2023/12/29 09:08:46;;;;;;;7.67;2.10;;;10.30;99.90;;;;;;5030251;28;20456;-66
2023/12/29 09:11:13;;;;;;;8.30;2.17;;;10.20;99.90;;;;;;5031725;28;20449;-68
2023/12/29 09:13:44;;;;;;;7.23;2.03;;;10.20;99.90;;;;;;5029874;28;20440;-67
2023/12/29 09:16:12;;;;;;;7.20;1.97;;;10.20;99.90;;;;;;5028734;28;20881;-67
2023/12/29 09:18:41;;;;;;;7.60;2.13;;;10.20;99.90;;;;;;5029962;28;20466;-67
2023/12/29 09:21:09;;;;;;;7.87;2.20;;;10.30;99.90;;;;;;5028724;28;20554;-67
2023/12/29 09:23:38;;;;;;;8.27;1.70;;;10.50;99.90;;;;;;5030218;28;20490;-67
2023/12/29 09:26:06;;;;;;;6.93;1.90;;;10.50;99.90;;;;;;5028938;28;20559;-68
2023/12/29 09:28:34;;;;;;;7.10;1.73;;;10.60;99.90;;;;;;5029753;28;20447;-67
2023/12/29 09:31:02;;;;;;;7.70;2.20;;;10.60;99.90;;;;;;5029001;28;20576;-67
2023/12/29 09:33:31;;;;;;;7.73;2.20;;;10.70;99.90;;;;;;5038893;28;20960;-67
2023/12/29 09:36:00;;;;;;;7.50;1.90;;;10.70;99.90;;;;;;5040575;28;21027;-66
2023/12/29 09:38:30;;;;;;;8.33;2.17;;;10.90;99.90;;;;;;5034741;28;20817;-67
2023/12/29 09:41:03;;;;;;;8.00;2.00;;;10.90;99.90;;;;;;5030793;28;20450;-68
2023/12/29 09:43:32;;;;;;;7.33;1.80;;;11.10;99.90;;;;;;5036000;28;20988;-66
2023/12/29 09:46:01;;;;;;;6.90;1.70;;;11.20;99.90;;;;;;5033254;28;20471;-68
2023/12/29 09:48:30;;;;;;;6.80;1.80;;;11.40;99.90;;;;;;5036487;28;20938;-67
2023/12/29 09:51:00;;;;;;;7.70;1.90;;;11.40;99.90;;;;;;5030385;28;20454;-67
2023/12/29 09:53:30;;;;;;;6.80;1.57;;;11.50;99.90;;;;;;5032985;28;21004;-68
2023/12/29 09:56:00;;;;;;;9.20;2.27;;;11.50;99.90;;;;;;5030775;28;20578;-68
2023/12/29 09:58:28;;;;;;;7.07;1.30;;;11.50;99.90;;;;;;5033600;28;20934;-68
2023/12/29 10:00:57;;;;;;;7.07;1.40;;;11.50;99.90;;;;;;5031666;28;20449;-67
2023/12/29 10:03:25;;;;;;;7.27;1.40;;;11.40;99.90;;;;;;5030064;28;20449;-68
2023/12/29 10:05:57;;;;;;;6.70;1.20;;;11.40;99.90;;;;;;5018108;28;20896;-67
2023/12/29 10:08:28;;;;;;;6.90;1.60;;;11.50;99.90;;;;;;5018874;28;20448;-68
2023/12/29 10:10:57;;;;;;;6.67;1.13;;;11.50;99.90;;;;;;5018894;28;20501;-67
2023/12/29 10:13:27;;;;;;;6.87;1.40;;;11.60;99.90;;;;;;5018800;28;20959;-69
2023/12/29 10:16:03;;;;;;;7.87;1.73;;;11.80;99.90;;;;;;5017986;28;20839;-68
2023/12/29 10:18:41;;;;;;;6.70;1.30;;;11.90;99.90;;;;;;5024560;28;20855;-69
2023/12/29 10:21:18;;;;;;;7.20;1.30;;;12.20;99.90;;;;;;5020135;28;21045;-68
2023/12/29 10:23:55;;;;;;;7.80;1.37;;;12.30;99.90;;;;;;5028036;28;21164;-68
2023/12/29 10:26:25;;;;;;;6.60;1.17;;;12.20;99.90;;;;;;5028808;28;20478;-69
2023/12/29 10:28:53;;;;;;;7.20;1.60;;;12.40;99.90;;;;;;5025561;28;20564;-69
2023/12/29 10:31:21;;;;;;;7.37;1.40;;;12.50;99.90;;;;;;5028635;28;20504;-67
2023/12/29 10:33:51;;;;;;;6.80;1.23;;;12.70;99.90;;;;;;5024870;28;20456;-68
2023/12/29 10:36:19;;;;;;;7.10;1.60;;;12.70;99.90;;;;;;5025685;28;20559;-68
2023/12/29 10:38:49;;;;;;;6.40;1.30;;;12.80;99.90;;;;;;5024202;28;20445;-69
2023/12/29 10:41:19;;;;;;;6.60;1.50;;;12.90;99.90;;;;;;5022910;28;20458;-68
2023/12/29 10:43:51;;;;;;;6.47;1.20;;;12.90;99.90;;;;;;5026592;28;20447;-68
2023/12/29 10:46:20;;;;;;;6.70;1.40;;;12.70;99.90;;;;;;5025144;28;20468;-68
2023/12/29 10:48:49;;;;;;;6.60;1.30;;;12.60;99.90;;;;;;5029639;28;20466;-69
2023/12/29 10:51:27;;;;;;;6.47;1.00;;;12.50;99.90;;;;;;5034111;28;20438;-69
2023/12/29 10:53:57;;;;;;;6.73;1.10;;;12.40;99.90;;;;;;5026282;28;20600;-68
2023/12/29 10:56:26;;;;;;;7.23;1.27;;;12.30;99.90;;;;;;5016973;28;20484;-69
2023/12/29 10:59:02;;;;;;;6.77;1.40;;;12.30;99.90;;;;;;5016542;28;20431;-68
2023/12/29 11:01:31;;;;;;;7.57;1.80;;;12.20;99.90;;;;;;5012822;28;20452;-68
2023/12/29 11:04:00;;;;;;;7.50;1.30;;;12.20;99.90;;;;;;5014159;28;20449;-68
2023/12/29 11:06:29;;;;;;;7.00;1.20;;;12.40;99.90;;;;;;5019093;28;20463;-68
2023/12/29 11:08:58;;;;;;;6.60;1.27;;;12.40;99.90;;;;;;5024296;28;20459;-67
2023/12/29 11:11:27;;;;;;;7.10;1.30;;;12.40;99.90;;;;;;5022579;28;20446;-68
2023/12/29 11:13:56;;;;;;;6.90;1.40;;;12.40;99.90;;;;;;5021884;28;20459;-68
2023/12/29 11:16:25;;;;;;;7.17;1.13;;;12.40;99.90;;;;;;5021675;28;20502;-67
2023/12/29 11:18:56;;;;;;;6.50;1.20;;;12.40;99.90;;;;;;5024798;28;20884;-68
2023/12/29 11:21:27;;;;;;;6.93;1.37;;;12.40;99.90;;;;;;5024218;28;20452;-68
2023/12/29 11:23:55;;;;;;;6.73;1.47;;;12.40;99.90;;;;;;5026613;28;20460;-68
2023/12/29 11:26:26;;;;;;;6.83;1.50;;;12.40;99.90;;;;;;5022947;28;20475;-68
2023/12/29 11:28:55;;;;;;;6.50;1.10;;;12.40;99.90;;;;;;5018854;28;20465;-68
2023/12/29 11:31:24;;;;;;;6.53;1.40;;;12.50;99.90;;;;;;5023439;28;20464;-67
2023/12/29 11:34:01;;;;;;;6.90;1.23;;;12.60;99.90;;;;;;5024694;28;20443;-69
2023/12/29 11:36:35;;;;;;;6.00;0.90;;;12.60;99.90;;;;;;5033247;28;20454;-68
2023/12/29 11:39:07;;;;;;;6.33;0.90;;;12.60;99.90;;;;;;5025656;28;21820;-69
2023/12/29 11:41:41;;;;;;;7.43;1.37;;;12.70;99.90;;;;;;5026971;28;20476;-68
2023/12/29 11:44:09;;;;;;;6.30;0.90;;;12.80;99.90;;;;;;5027112;28;20478;-67
2023/12/29 11:46:39;;;;;;;6.00;0.93;;;12.90;99.90;;;;;;5028974;28;20505;-67
2023/12/29 11:49:08;;;;;;;7.40;0.97;;;13.00;99.90;;;;;;5029706;28;20463;-67
2023/12/29 11:51:37;;;;;;;6.87;1.00;;;13.10;99.90;;;;;;5029711;28;20455;-66
2023/12/29 11:54:06;;;;;;;5.97;0.90;;;13.10;99.90;;;;;;5031811;28;20452;-67
2023/12/29 11:56:40;;;;;;;6.70;0.90;;;13.20;99.90;;;;;;5026208;28;20488;-67
2023/12/29 11:59:15;;;;;;;6.30;0.90;;;13.10;99.90;;;;;;5022117;28;20525;-68
2023/12/29 12:01:44;;;;;;;6.20;0.90;;;13.10;99.90;;;;;;5022037;28;20444;-67
2023/12/29 12:04:36;;;;;;;6.77;0.80;;;13.20;99.90;;;;;;5024368;28;21160;-68
2023/12/29 12:07:07;;;;;;;6.07;1.00;;;13.20;99.90;;;;;;5020255;28;20502;-67
2023/12/29 12:09:35;;;;;;;6.10;0.93;;;13.40;99.90;;;;;;5022710;28;21116;-68
2023/12/29 12:12:06;;;;;;;6.57;0.97;;;13.40;99.90;;;;;;5025441;28;20804;-69
2023/12/29 12:14:47;;;;;;;6.40;1.00;;;13.30;99.90;;;;;;5026434;28;20845;-68
2023/12/29 12:17:28;;;;;;;5.80;0.70;;;13.30;99.90;;;;;;5026273;28;20484;-68
2023/12/29 12:19:59;;;;;;;8.17;0.87;;;13.20;99.90;;;;;;5021089;28;20446;-69
2023/12/29 12:22:30;;;;;;;6.27;0.90;;;13.30;99.90;;;;;;5023042;28;20444;-68
2023/12/29 12:24:59;;;;;;;6.50;1.13;;;13.30;99.90;;;;;;5020243;28;20556;-68
2023/12/29 12:27:29;;;;;;;5.90;0.70;;;13.30;99.90;;;;;;5027069;28;20446;-67
2023/12/29 12:29:59;;;;;;;6.97;1.30;;;13.30;99.90;;;;;;5029834;28;20997;-67
2023/12/29 12:32:28;;;;;;;6.50;1.10;;;13.50;99.90;;;;;;5032774;28;20455;-68
2023/12/29 12:34:57;;;;;;;8.53;1.27;;;13.60;99.90;;;;;;5030691;28;20472;-67
2023/12/29 12:37:27;;;;;;;6.43;1.20;;;13.70;99.90;;;;;;5030819;28;20563;-68
2023/12/29 12:39:55;;;;;;;6.40;0.90;;;13.90;99.90;;;;;;5028056;28;20445;-68
2023/12/29 12:42:24;;;;;;;7.00;1.00;;;13.90;99.90;;;;;;5029140;28;21015;-68
2023/12/29 12:45:04;;;;;;;6.20;0.93;;;13.90;99.90;;;;;;5030365;28;20527;-67
2023/12/29 12:47:35;;;;;;;6.67;1.47;;;13.90;99.90;;;;;;5029049;28;20471;-68
2023/12/29 12:50:06;;;;;;;7.40;1.37;;;13.80;99.90;;;;;;5027612;28;20878;-68
2023/12/29 12:52:36;;;;;;;6.17;1.17;;;13.70;99.90;;;;;;5026979;28;20448;-68
2023/12/29 12:55:05;;;;;;;6.20;1.17;;;13.60;99.90;;;;;;5024876;28;20515;-69
2023/12/29 12:57:34;;;;;;;6.20;1.10;;;13.60;99.90;;;;;;5029699;28;20538;-68
2023/12/29 13:00:05;;;;;;;7.00;1.40;;;13.60;99.90;;;;;;5029284;28;20586;-68
2023/12/29 13:02:35;;;;;;;6.40;1.37;;;13.60;99.90;;;;;;5029347;28;20456;-68